createdAt,value
2023-05-05T00:02:12.159Z,95825.81
2023-05-05T00:04:38.709Z,95821.13
2023-05-05T00:07:05.284Z,95813.84
2023-05-05T00:09:31.781Z,95816.25
2023-05-05T00:11:58.253Z,95808.78
2023-05-05T00:14:24.728Z,95807.47
2023-05-05T00:16:51.254Z,95816.28
2023-05-05T00:19:17.855Z,95814.06
2023-05-05T00:21:44.425Z,95820.38
2023-05-05T00:24:10.971Z,95820.53
2023-05-05T00:26:37.445Z,95811.47
2023-05-05T00:29:03.930Z,95816.59
2023-05-05T00:31:30.598Z,95810.44
2023-05-05T00:33:57.132Z,95812.91
2023-05-05T00:36:23.739Z,95814.31
2023-05-05T00:38:50.227Z,95811.19
2023-05-05T00:41:19.715Z,95815.34
2023-05-05T00:43:46.218Z,95815.34
2023-05-05T00:46:33.954Z,95811.47
2023-05-05T00:49:00.934Z,95811.47
2023-05-05T00:51:28.805Z,95802.44
2023-05-05T00:53:55.699Z,95809.09
2023-05-05T00:56:22.292Z,95806.41
2023-05-05T00:58:49.350Z,95805.25
2023-05-05T01:01:17.632Z,95800.94
2023-05-05T01:03:44.583Z,95804.19
2023-05-05T01:06:26.335Z,95803.00
2023-05-05T01:09:08.763Z,95803.88
2023-05-05T01:11:54.811Z,95804.78
2023-05-05T01:15:10.118Z,95799.44
2023-05-05T01:17:43.301Z,95798.66
2023-05-05T01:20:17.551Z,95794.59
2023-05-05T01:22:53.353Z,95795.88
2023-05-05T01:25:56.574Z,95799.22
2023-05-05T01:29:12.179Z,95785.69
2023-05-05T01:31:44.383Z,95790.19
2023-05-05T01:34:16.560Z,95791.63
2023-05-05T01:36:55.409Z,95795.50
2023-05-05T01:39:27.535Z,95803.59
2023-05-05T01:41:57.796Z,95797.66
2023-05-05T01:44:24.801Z,95799.28
2023-05-05T01:46:52.992Z,95797.28
2023-05-05T01:49:20.002Z,95794.38
2023-05-05T01:51:48.781Z,95794.78
2023-05-05T01:54:18.360Z,95799.31
2023-05-05T01:56:48.101Z,95801.09
2023-05-05T01:59:15.945Z,95794.50
2023-05-05T02:01:45.558Z,95800.44
2023-05-05T02:04:14.839Z,95799.50
2023-05-05T02:06:44.240Z,95799.81
2023-05-05T02:09:13.928Z,95799.44
2023-05-05T02:11:41.157Z,95800.53
2023-05-05T02:14:10.212Z,95802.34
2023-05-05T02:16:42.210Z,95791.50
2023-05-05T02:19:11.890Z,95794.16
2023-05-05T02:21:38.772Z,95795.28
2023-05-05T02:24:05.980Z,95787.34
2023-05-05T02:26:36.355Z,95792.47
2023-05-05T02:29:12.637Z,95794.16
2023-05-05T02:31:46.410Z,95793.94
2023-05-05T02:34:21.068Z,95785.81
2023-05-05T02:36:52.582Z,95790.13
2023-05-05T02:39:35.252Z,95789.91
2023-05-05T02:42:04.859Z,95785.22
2023-05-05T02:44:33.538Z,95780.72
2023-05-05T02:47:02.297Z,95789.91
2023-05-05T02:49:28.952Z,95786.66
2023-05-05T02:51:55.490Z,95788.72
2023-05-05T02:54:22.080Z,95785.63
2023-05-05T02:56:53.492Z,95793.66
2023-05-05T02:59:51.277Z,95783.00
2023-05-05T03:02:43.311Z,95788.31
2023-05-05T03:05:16.929Z,95791.59
2023-05-05T03:08:02.166Z,95781.16
2023-05-05T03:10:43.903Z,95778.63
2023-05-05T03:13:14.302Z,95775.72
2023-05-05T03:15:47.694Z,95772.03
2023-05-05T03:18:14.879Z,95772.88
2023-05-05T03:20:42.696Z,95769.56
2023-05-05T03:23:09.422Z,95767.91
2023-05-05T03:25:47.192Z,95765.88
2023-05-05T03:28:14.905Z,95766.72
2023-05-05T03:30:42.579Z,95776.16
2023-05-05T03:33:10.661Z,95769.81
2023-05-05T03:35:37.379Z,95780.63
2023-05-05T03:38:03.856Z,95781.09
2023-05-05T03:40:43.005Z,95776.25
2023-05-05T03:43:11.044Z,95778.88
2023-05-05T03:45:37.584Z,95772.56
2023-05-05T03:48:04.428Z,95774.78
2023-05-05T03:50:30.893Z,95779.06
2023-05-05T03:52:57.346Z,95774.59
2023-05-05T03:55:23.884Z,95780.75
2023-05-05T03:57:50.401Z,95781.16
2023-05-05T04:00:17.269Z,95787.31
2023-05-05T04:02:43.991Z,95778.69
2023-05-05T04:05:10.566Z,95779.09
2023-05-05T04:07:37.085Z,95772.16
2023-05-05T04:10:03.731Z,95780.34
2023-05-05T04:12:30.335Z,95774.81
2023-05-05T04:14:56.900Z,95768.47
2023-05-05T04:17:26.509Z,95765.81
2023-05-05T04:19:52.987Z,95764.41
2023-05-05T04:22:19.460Z,95772.59
2023-05-05T04:24:45.973Z,95772.63
2023-05-05T04:27:12.417Z,95770.75
2023-05-05T04:29:38.942Z,95774.22
2023-05-05T04:32:05.708Z,95778.97
2023-05-05T04:34:32.239Z,95772.63
2023-05-05T04:36:58.763Z,95770.16
2023-05-05T04:39:25.261Z,95774.66
2023-05-05T04:41:51.999Z,95767.69
2023-05-05T04:44:18.486Z,95768.47
2023-05-05T04:46:45.070Z,95762.13
2023-05-05T04:49:11.572Z,95765.59
2023-05-05T04:51:41.756Z,95762.91
2023-05-05T04:54:08.507Z,95754.50
2023-05-05T04:56:35.029Z,95763.88
2023-05-05T04:59:01.507Z,95759.38
2023-05-05T05:01:28.054Z,95772.66
2023-05-05T05:03:54.603Z,95771.59
2023-05-05T05:06:21.173Z,95766.06
2023-05-05T05:08:47.629Z,95768.69
2023-05-05T05:11:14.163Z,95768.22
2023-05-05T05:13:40.665Z,95770.06
2023-05-05T05:16:07.447Z,95761.25
2023-05-05T05:18:33.955Z,95767.31
2023-05-05T05:21:00.431Z,95762.59
2023-05-05T05:23:26.933Z,95761.94
2023-05-05T05:25:53.525Z,95767.03
2023-05-05T05:28:20.063Z,95766.75
2023-05-05T05:30:46.695Z,95767.53
2023-05-05T05:33:13.437Z,95765.44
2023-05-05T05:35:40.114Z,95771.09
2023-05-05T05:38:06.649Z,95771.88
2023-05-05T05:40:33.112Z,95773.50
2023-05-05T05:42:59.716Z,95778.50
2023-05-05T05:45:26.237Z,95779.84
2023-05-05T05:47:52.761Z,95783.88
2023-05-05T05:50:19.329Z,95779.53
2023-05-05T05:52:46.084Z,95782.53
2023-05-05T05:55:12.640Z,95776.50
2023-05-05T05:57:39.148Z,95786.09
2023-05-05T06:00:06.272Z,95781.44
2023-05-05T06:02:32.920Z,95787.69
2023-05-05T06:04:59.480Z,95792.34
2023-05-05T06:07:25.953Z,95791.81
2023-05-05T06:09:52.444Z,95785.50
2023-05-05T06:12:18.924Z,95789.63
2023-05-05T06:14:45.428Z,95793.31
2023-05-05T06:17:11.927Z,95793.63
2023-05-05T06:19:39.449Z,95790.25
2023-05-05T06:22:06.009Z,95790.53
2023-05-05T06:24:32.735Z,95788.41
2023-05-05T06:26:59.300Z,95786.63
2023-05-05T06:29:26.253Z,95787.91
2023-05-05T06:31:52.888Z,95787.91
2023-05-05T06:34:19.908Z,95792.97
2023-05-05T06:36:46.455Z,95790.38
2023-05-05T06:39:15.278Z,95792.16
2023-05-05T06:41:42.506Z,95787.97
2023-05-05T06:44:08.996Z,95782.13
2023-05-05T06:46:35.632Z,95784.31
2023-05-05T06:49:02.226Z,95777.44
2023-05-05T06:51:29.780Z,95785.22
2023-05-05T06:53:56.256Z,95781.53
2023-05-05T06:56:22.724Z,95791.16
2023-05-05T06:58:49.313Z,95786.78
2023-05-05T07:01:15.884Z,95792.34
2023-05-05T07:03:45.654Z,95787.44
2023-05-05T07:06:12.161Z,95787.44
2023-05-05T07:08:38.649Z,95776.88
2023-05-05T07:11:05.138Z,95773.63
2023-05-05T07:13:31.615Z,95776.97
2023-05-05T07:15:58.141Z,95783.81
2023-05-05T07:18:24.598Z,95767.78
2023-05-05T07:20:51.069Z,95769.31
2023-05-05T07:23:17.535Z,95780.03
2023-05-05T07:25:44.265Z,95774.22
2023-05-05T07:28:11.435Z,95770.50
2023-05-05T07:30:37.965Z,95768.97
2023-05-05T07:33:04.553Z,95766.06
2023-05-05T07:35:31.081Z,95760.25
2023-05-05T07:37:57.612Z,95767.94
2023-05-05T07:40:24.167Z,95760.94
2023-05-05T07:42:50.721Z,95757.69
2023-05-05T07:45:17.395Z,95757.00
2023-05-05T07:47:43.961Z,95762.72
2023-05-05T07:50:10.821Z,95760.94
2023-05-05T07:52:44.963Z,95763.50
2023-05-05T07:55:14.954Z,95762.53
2023-05-05T07:57:41.445Z,95754.41
2023-05-05T08:00:08.624Z,95754.41
2023-05-05T08:02:35.782Z,95756.97
2023-05-05T08:05:02.433Z,95750.25
2023-05-05T08:07:28.930Z,95753.84
2023-05-05T08:09:55.492Z,95752.66
2023-05-05T08:12:22.006Z,95751.72
2023-05-05T08:14:48.512Z,95753.53
2023-05-05T08:17:14.983Z,95745.56
2023-05-05T08:19:41.459Z,95739.81
2023-05-05T08:22:08.034Z,95744.72
2023-05-05T08:24:37.080Z,95746.03
2023-05-05T08:27:03.666Z,95745.72
2023-05-05T08:29:30.186Z,95746.03
2023-05-05T08:39:32.994Z,95745.78
2023-05-05T08:41:59.868Z,95757.16
2023-05-05T08:44:26.397Z,95750.69
2023-05-05T08:46:54.034Z,95751.13
2023-05-05T08:49:22.440Z,95741.09
2023-05-05T08:51:52.327Z,95733.34
2023-05-05T08:54:23.443Z,95742.72
2023-05-05T08:56:50.413Z,95736.81
2023-05-05T08:59:18.865Z,95737.28
2023-05-05T09:01:46.230Z,95730.72
2023-05-05T09:04:12.835Z,95728.81
2023-05-05T09:06:40.190Z,95716.00
2023-05-05T09:09:06.924Z,95726.25
2023-05-05T09:11:34.981Z,95724.84
2023-05-05T09:14:01.541Z,95723.13
2023-05-05T09:16:28.120Z,95726.03
2023-05-05T09:19:01.712Z,95724.16
2023-05-05T09:21:28.275Z,95724.63
2023-05-05T09:24:08.624Z,95717.69
2023-05-05T09:26:38.398Z,95719.72
2023-05-05T09:29:05.846Z,95727.09
2023-05-05T09:31:34.042Z,95725.56
2023-05-05T09:34:01.105Z,95723.22
2023-05-05T09:36:47.458Z,95728.03
2023-05-05T09:39:16.961Z,95718.44
2023-05-05T09:41:44.396Z,95724.88
2023-05-05T09:44:12.411Z,95722.09
2023-05-05T09:46:50.761Z,95714.28
2023-05-05T09:49:20.133Z,95716.28
2023-05-05T09:51:47.551Z,95712.63
2023-05-05T09:54:28.159Z,95711.09
2023-05-05T09:56:56.308Z,95706.66
2023-05-05T09:59:23.958Z,95707.34
2023-05-05T10:01:51.711Z,95698.44
2023-05-05T10:04:28.192Z,95692.28
2023-05-05T10:06:58.649Z,95690.00
2023-05-05T10:09:26.699Z,95687.31
2023-05-05T10:11:53.728Z,95691.34
2023-05-05T10:14:20.362Z,95682.53
2023-05-05T10:16:49.628Z,95681.28
2023-05-05T10:19:18.913Z,95681.47
2023-05-05T10:22:03.400Z,95691.41
2023-05-05T10:24:48.877Z,95681.88
2023-05-05T10:27:19.942Z,95684.16
2023-05-05T10:30:03.253Z,95687.88
2023-05-05T10:35:25.141Z,95690.84
2023-05-05T10:37:53.084Z,95684.97
2023-05-05T10:40:24.617Z,95674.44
2023-05-05T10:42:53.919Z,95688.53
2023-05-05T10:45:20.733Z,95681.69
2023-05-05T10:47:49.458Z,95677.41
2023-05-05T10:50:28.863Z,95689.25
2023-05-05T10:53:26.792Z,95681.25
2023-05-05T10:55:57.126Z,95675.78
2023-05-05T10:58:51.335Z,95675.28
2023-05-05T11:01:48.856Z,95672.59
2023-05-05T11:04:20.015Z,95668.81
2023-05-05T11:07:08.486Z,95671.91
2023-05-05T11:09:36.750Z,95669.09
2023-05-05T11:12:05.260Z,95669.31
2023-05-05T11:14:32.934Z,95664.00
2023-05-05T11:16:59.585Z,95662.66
2023-05-05T11:19:47.137Z,95667.31
2023-05-05T11:22:14.180Z,95654.81
2023-05-05T11:24:40.735Z,95657.06
2023-05-05T11:27:07.590Z,95660.47
2023-05-05T11:30:06.316Z,95653.53
2023-05-05T11:32:32.941Z,95647.72
2023-05-05T11:35:01.156Z,95645.69
2023-05-05T11:37:28.869Z,95647.78
2023-05-05T11:40:13.207Z,95642.72
2023-05-05T11:42:39.884Z,95634.50
2023-05-05T11:45:21.139Z,95632.00
2023-05-05T11:47:47.706Z,95631.56
2023-05-05T11:50:19.223Z,95628.09
2023-05-05T11:52:47.064Z,95627.19
2023-05-05T11:55:19.546Z,95630.94
2023-05-05T11:57:46.107Z,95626.59
2023-05-05T12:00:13.131Z,95632.91
2023-05-05T12:02:39.745Z,95639.84
2023-05-05T12:05:06.738Z,95631.38
2023-05-05T12:07:33.778Z,95630.81
2023-05-05T12:10:00.400Z,95625.66
2023-05-05T12:12:37.554Z,95622.97
2023-05-05T12:15:05.313Z,95620.38
2023-05-05T12:17:38.489Z,95621.63
2023-05-05T12:20:05.786Z,95610.22
2023-05-05T12:22:32.411Z,95606.59
2023-05-05T12:25:01.542Z,95613.75
2023-05-05T12:27:31.157Z,95606.03
2023-05-05T12:30:12.056Z,95611.41
2023-05-05T12:32:38.671Z,95611.75
2023-05-05T12:35:07.110Z,95621.78
2023-05-05T12:37:34.617Z,95611.09
2023-05-05T12:40:01.140Z,95610.13
2023-05-05T12:42:30.446Z,95598.50
2023-05-05T12:44:57.156Z,95610.38
2023-05-05T12:47:31.091Z,95612.22
2023-05-05T12:49:58.013Z,95600.88
2023-05-05T12:52:24.587Z,95589.88
2023-05-05T12:54:59.295Z,95596.72
2023-05-05T12:57:26.329Z,95590.59
2023-05-05T12:59:53.482Z,95591.13
2023-05-05T13:02:20.941Z,95591.28
2023-05-05T13:04:53.034Z,95572.50
2023-05-05T13:07:21.769Z,95568.78
2023-05-05T13:09:49.958Z,95561.59
2023-05-05T13:12:20.105Z,95554.63
2023-05-05T13:14:46.929Z,95552.47
2023-05-05T13:17:14.327Z,95556.25
2023-05-05T13:19:41.145Z,95549.19
2023-05-05T13:22:08.617Z,95547.50
2023-05-05T13:24:49.693Z,95539.66
2023-05-05T13:27:17.010Z,95531.44
2023-05-05T13:29:43.573Z,95533.50
2023-05-05T13:32:10.293Z,95530.03
2023-05-05T13:34:36.858Z,95534.41
2023-05-05T13:37:03.458Z,95530.03
2023-05-05T13:39:30.022Z,95534.56
2023-05-05T13:41:56.584Z,95522.78
2023-05-05T13:44:23.117Z,95521.00
2023-05-05T13:46:49.622Z,95528.84
2023-05-05T13:49:16.219Z,95524.28
2023-05-05T13:51:43.996Z,95517.91
2023-05-05T13:54:10.542Z,95515.25
2023-05-05T13:56:37.142Z,95516.81
2023-05-05T13:59:06.465Z,95504.84
2023-05-05T14:01:33.063Z,95501.13
2023-05-05T14:04:00.488Z,95504.19
2023-05-05T14:06:28.890Z,95505.13
2023-05-05T14:08:55.432Z,95504.25
2023-05-05T14:11:22.292Z,95504.28
2023-05-05T14:13:48.837Z,95499.25
2023-05-05T14:16:15.734Z,95509.06
2023-05-05T14:18:42.503Z,95508.72
2023-05-05T14:21:09.107Z,95494.78
2023-05-05T14:23:35.860Z,95500.59
2023-05-05T14:26:02.704Z,95494.09
2023-05-05T14:28:29.549Z,95491.91
2023-05-05T14:30:56.241Z,95500.41
2023-05-05T14:33:25.775Z,95495.69
2023-05-05T14:35:52.506Z,95495.00
2023-05-05T14:38:19.035Z,95486.97
2023-05-05T14:40:53.127Z,95491.06
2023-05-05T14:43:25.207Z,95496.75
2023-05-05T14:45:51.839Z,95499.72
2023-05-05T14:48:18.622Z,95498.09
2023-05-05T14:50:45.371Z,95499.75
2023-05-05T14:53:11.903Z,95506.28
2023-05-05T14:55:38.473Z,95499.47
2023-05-05T14:58:05.074Z,95493.13
2023-05-05T15:00:31.570Z,95498.69
2023-05-05T15:02:58.204Z,95490.81
2023-05-05T15:05:24.767Z,95503.16
2023-05-05T15:07:51.516Z,95506.41
2023-05-05T15:10:21.104Z,95508.84
2023-05-05T15:12:48.659Z,95503.72
2023-05-05T15:15:15.374Z,95512.25
2023-05-05T15:17:42.032Z,95512.06
2023-05-05T15:20:08.962Z,95515.72
2023-05-05T15:22:35.648Z,95510.63
2023-05-05T15:25:02.290Z,95510.50
2023-05-05T15:27:28.992Z,95514.72
2023-05-05T15:29:58.304Z,95511.41
2023-05-05T15:32:24.911Z,95517.94
2023-05-05T15:34:51.519Z,95518.13
2023-05-05T15:37:18.017Z,95519.09
2023-05-05T15:39:44.556Z,95512.16
2023-05-05T15:42:11.170Z,95511.09
2023-05-05T15:44:37.810Z,95515.22
2023-05-05T15:47:04.815Z,95505.47
2023-05-05T15:49:31.435Z,95518.19
2023-05-05T15:51:58.228Z,95512.34
2023-05-05T15:54:24.757Z,95523.13
2023-05-05T15:56:51.214Z,95519.09
2023-05-05T15:59:19.026Z,95521.28
2023-05-05T16:01:45.943Z,95523.06
2023-05-05T16:04:12.540Z,95522.13
2023-05-05T16:06:39.121Z,95530.28
2023-05-05T16:09:05.605Z,95523.28
2023-05-05T16:11:32.161Z,95520.09
2023-05-05T16:13:58.755Z,95521.19
2023-05-05T16:16:25.296Z,95520.31
2023-05-05T16:18:51.786Z,95519.94
2023-05-05T16:21:18.284Z,95530.31
2023-05-05T16:23:44.808Z,95526.78
2023-05-05T16:26:11.362Z,95530.28
2023-05-05T16:28:38.067Z,95534.50
2023-05-05T16:31:04.736Z,95534.28
2023-05-05T16:33:31.330Z,95538.19
2023-05-05T16:35:57.927Z,95534.66
2023-05-05T16:38:24.439Z,95542.13
2023-05-05T16:40:51.102Z,95537.63
2023-05-05T16:43:17.916Z,95568.94
2023-05-05T16:45:44.424Z,95547.63
2023-05-05T16:48:11.006Z,95542.75
2023-05-05T16:50:37.552Z,95546.06
2023-05-05T16:53:04.085Z,95540.88
2023-05-05T16:55:30.621Z,95533.97
2023-05-05T16:57:57.171Z,95531.25
2023-05-05T17:00:23.748Z,95526.69
2023-05-05T17:02:50.330Z,95536.16
2023-05-05T17:05:17.015Z,95535.78
2023-05-05T17:07:43.554Z,95535.66
2023-05-05T17:10:10.296Z,95526.34
2023-05-05T17:12:36.806Z,95531.50
2023-05-05T17:15:03.667Z,95532.13
2023-05-05T17:17:30.233Z,95535.66
2023-05-05T17:19:56.765Z,95534.28
2023-05-05T17:22:23.238Z,95530.09
2023-05-05T17:24:49.708Z,95524.41
2023-05-05T17:27:16.909Z,95530.28
2023-05-05T17:29:43.722Z,95532.47
2023-05-05T17:32:10.451Z,95532.94
2023-05-05T17:34:37.085Z,95541.94
2023-05-05T17:37:03.592Z,95531.63
2023-05-05T17:39:30.124Z,95551.41
2023-05-05T17:41:56.654Z,95551.13
2023-05-05T17:44:23.220Z,95556.13
2023-05-05T17:46:49.791Z,95551.28
2023-05-05T17:49:16.297Z,95558.69
2023-05-05T17:51:42.854Z,95562.97
2023-05-05T17:54:09.309Z,95556.44
2023-05-05T17:56:35.763Z,95563.16
2023-05-05T17:59:02.337Z,95563.47
2023-05-05T18:01:28.949Z,95560.81
2023-05-05T18:03:55.571Z,95572.91
2023-05-05T18:06:22.058Z,95567.06
2023-05-05T18:08:48.556Z,95564.19
2023-05-05T18:11:15.102Z,95568.03
2023-05-05T18:13:42.767Z,95580.97
2023-05-05T18:16:09.266Z,95579.44
2023-05-05T18:18:35.822Z,95572.97
2023-05-05T18:21:02.370Z,95585.53
2023-05-05T18:23:28.883Z,95589.41
2023-05-05T18:25:55.406Z,95596.63
2023-05-05T18:28:21.983Z,95595.09
2023-05-05T18:30:48.556Z,95598.47
2023-05-05T18:33:15.219Z,95596.28
2023-05-05T18:35:41.774Z,95602.22
2023-05-05T18:38:08.324Z,95601.59
2023-05-05T18:40:35.037Z,95597.75
2023-05-05T18:43:01.638Z,95599.19
2023-05-05T18:45:28.329Z,95599.28
2023-05-05T18:47:54.991Z,95594.94
2023-05-05T18:50:21.819Z,95601.19
2023-05-05T18:52:48.310Z,95597.81
2023-05-05T18:55:15.162Z,95599.81
2023-05-05T18:57:41.700Z,95605.31
2023-05-05T19:00:09.625Z,95603.31
2023-05-05T19:02:36.295Z,95603.19
2023-05-05T19:05:03.080Z,95608.31
2023-05-05T19:07:35.283Z,95610.50
2023-05-05T19:10:04.555Z,95608.31
2023-05-05T19:12:31.165Z,95604.50
2023-05-05T19:14:57.761Z,95611.44
2023-05-05T19:17:24.752Z,95614.81
2023-05-05T19:19:51.355Z,95622.88
2023-05-05T19:22:20.549Z,95622.81
2023-05-05T19:24:47.082Z,95619.06
2023-05-05T19:27:16.407Z,95622.06
2023-05-05T19:29:43.495Z,95621.81
2023-05-05T19:32:10.177Z,95629.31
2023-05-05T19:34:36.797Z,95628.81
2023-05-05T19:37:03.297Z,95631.31
2023-05-05T19:39:29.826Z,95629.97
2023-05-05T19:41:56.444Z,95636.44
2023-05-05T19:44:23.002Z,95643.38
2023-05-05T19:46:49.490Z,95636.44
2023-05-05T19:49:16.062Z,95643.63
2023-05-05T19:51:42.533Z,95635.25
2023-05-05T19:54:09.072Z,95631.13
2023-05-05T19:56:35.551Z,95632.94
2023-05-05T19:59:03.057Z,95635.53
2023-05-05T20:01:30.035Z,95634.53
2023-05-05T20:03:56.996Z,95633.19
2023-05-05T20:06:23.639Z,95636.84
2023-05-05T20:08:50.403Z,95635.16
2023-05-05T20:11:17.060Z,95636.13
2023-05-05T20:13:43.986Z,95629.78
2023-05-05T20:16:11.538Z,95639.72
2023-05-05T20:18:38.282Z,95631.81
2023-05-05T20:21:04.762Z,95634.84
2023-05-05T20:23:31.270Z,95635.16
2023-05-05T20:25:57.781Z,95641.91
2023-05-05T20:28:24.390Z,95643.28
2023-05-05T20:30:50.878Z,95635.47
2023-05-05T20:33:17.409Z,95642.16
2023-05-05T20:35:43.915Z,95641.72
2023-05-05T20:38:10.387Z,95644.53
2023-05-05T20:40:36.891Z,95642.72
2023-05-05T20:43:03.422Z,95630.28
2023-05-05T20:45:29.949Z,95628.03
2023-05-05T20:47:56.504Z,95642.47
2023-05-05T20:50:23.041Z,95642.59
2023-05-05T20:52:49.653Z,95640.38
2023-05-05T20:55:16.135Z,95638.41
2023-05-05T20:57:42.651Z,95651.66
2023-05-05T21:00:09.828Z,95649.84
2023-05-05T21:02:36.938Z,95646.94
2023-05-05T21:05:03.777Z,95654.03
2023-05-05T21:07:48.924Z,95647.03
2023-05-05T21:10:34.120Z,95647.84
2023-05-05T21:13:19.402Z,95653.19
2023-05-05T21:15:45.962Z,95644.81
2023-05-05T21:18:12.594Z,95649.03
2023-05-05T21:20:39.105Z,95645.50
2023-05-05T21:23:05.581Z,95645.28
2023-05-05T21:25:32.181Z,95645.75
2023-05-05T21:27:58.724Z,95638.31
2023-05-05T21:30:25.305Z,95638.31
2023-05-05T21:33:10.532Z,95636.44
2023-05-05T21:35:55.648Z,95635.00
2023-05-05T21:38:40.967Z,95633.84
2023-05-05T21:41:07.538Z,95638.25
2023-05-05T21:43:52.788Z,95635.47
2023-05-05T21:46:37.721Z,95631.06
2023-05-05T21:49:23.195Z,95635.59
2023-05-05T21:52:08.209Z,95640.72
2023-05-05T21:54:53.231Z,95652.94
2023-05-05T21:57:38.332Z,95648.97
2023-05-05T22:00:05.196Z,95649.91
2023-05-05T22:02:32.344Z,95654.25
2023-05-05T22:04:58.896Z,95644.81
2023-05-05T22:07:25.594Z,95632.28
2023-05-05T22:09:52.200Z,95629.59
2023-05-05T22:12:18.686Z,95627.16
2023-05-05T22:14:45.200Z,95620.63
2023-05-05T22:17:11.701Z,95615.94
2023-05-05T22:19:38.214Z,95616.53
2023-05-05T22:22:04.687Z,95622.66
2023-05-05T22:24:31.970Z,95608.91
2023-05-05T22:26:58.620Z,95611.84
2023-05-05T22:29:25.158Z,95613.09
2023-05-05T22:31:51.819Z,95620.38
2023-05-05T22:34:18.439Z,95623.66
2023-05-05T22:36:44.917Z,95616.38
2023-05-05T22:39:11.450Z,95609.16
2023-05-05T22:41:37.925Z,95616.56
2023-05-05T22:44:04.513Z,95620.31
2023-05-05T22:46:31.227Z,95620.91
2023-05-05T22:48:57.837Z,95619.66
2023-05-05T22:51:24.359Z,95612.47
2023-05-05T22:53:50.928Z,95607.81
2023-05-05T22:56:17.461Z,95615.59
2023-05-05T22:58:44.128Z,95612.47
2023-05-05T23:01:10.955Z,95612.31
2023-05-05T23:03:37.563Z,95622.13
2023-05-05T23:06:04.059Z,95618.00
2023-05-05T23:08:30.610Z,95619.75
2023-05-05T23:10:57.149Z,95618.03
2023-05-05T23:13:23.708Z,95613.03
2023-05-05T23:15:50.289Z,95609.06
2023-05-05T23:18:16.774Z,95608.75
2023-05-05T23:20:43.986Z,95614.78
2023-05-05T23:23:10.510Z,95613.63
2023-05-05T23:25:36.998Z,95610.13
2023-05-05T23:28:03.645Z,95612.13
2023-05-05T23:30:30.198Z,95611.28
2023-05-05T23:32:56.743Z,95611.28
2023-05-05T23:35:24.056Z,95618.03
2023-05-05T23:37:50.514Z,95618.63
2023-05-05T23:40:17.113Z,95618.25
2023-05-05T23:42:43.627Z,95616.28
2023-05-05T23:45:10.652Z,95615.00
2023-05-05T23:47:38.668Z,95614.75
2023-05-05T23:50:05.575Z,95617.09
2023-05-05T23:52:32.046Z,95612.41
2023-05-05T23:54:58.501Z,95610.66
2023-05-05T23:57:24.973Z,95608.22
2023-05-05T23:59:51.452Z,95609.63
